Wake Island, Hawaii
Current Conditions -  °F | °C
As of 11:58 AM on Monday 20 Oct 2014 (Local Time) from PWAK Reporting Station
Clear Clear  
Wind Chill: 86°   Ceiling: Unl
Heat Index: 98°   Visibility: 6mi
Dew Point: 78°   Wind: 22mph
Humidity: 78%   Direction: 190°S
Pressure: 29.85"   Gusts: NA
Location:  19.2833°N, 166.6°E
Report Text: PWAK 202358Z AUTO 19019KT 9999 CLR 30/26 A2985 RMK AO2 SLP115 T02980256 10303 20285 58004
Loading
Personal Weather Stations






























Interactive Weather Map
Tropical Storm Tracking
New forecast layout! Learn more

10-Day Weather Forecast

Advertisements
Track Severe Weather on mobile